Time;durP1;ratioP1;P1;durP2;ratioP2;P2;SDS_P1;SDS_P2;PMS_P1;PMS_P2;Temp;Humidity;BMP_temperature;BMP_pressure;BME280_temperature;BME280_humidity;BME280_pressure;Samples;Min_cycle;Max_cycle;Signal;HPM_P1;HPM_P2
2023/05/25 00:00:19;;;;;;;;;21.60;19.00;;;;;18.92;62.63;99234.84;7775343;22;96424;-60
2023/05/25 00:03:26;;;;;;;;;20.00;19.00;;;;;18.92;62.54;99227.47;7748170;22;96301;-60
2023/05/25 00:06:30;;;;;;;;;20.00;19.00;;;;;18.93;62.84;99226.38;7775149;22;96053;-61
2023/05/25 00:09:33;;;;;;;;;20.00;20.00;;;;;18.93;62.59;99228.28;7774750;22;96365;-60
2023/05/25 00:12:36;;;;;;;;;22.00;19.40;;;;;18.90;62.49;99226.09;7775677;22;96248;-60
2023/05/25 00:15:40;;;;;;;;;19.00;16.50;;;;;18.92;62.43;99232.94;7775511;22;96980;-60
2023/05/25 00:18:47;;;;;;;;;21.33;19.00;;;;;18.87;62.53;99227.44;7775497;22;96866;-61
2023/05/25 00:21:51;;;;;;;;;20.00;18.00;;;;;18.89;62.60;99236.22;7774766;22;97440;-61
2023/05/25 00:24:54;;;;;;;;;18.60;17.00;;;;;18.84;62.96;99241.66;7775646;22;96921;-61
2023/05/25 00:27:58;;;;;;;;;19.00;16.40;;;;;18.79;63.07;99238.91;7775507;22;96410;-61
2023/05/25 00:31:01;;;;;;;;;18.00;17.60;;;;;18.83;63.03;99237.28;7747581;22;96201;-61
2023/05/25 00:34:06;;;;;;;;;16.80;16.60;;;;;18.79;63.23;99238.91;7747731;22;96352;-60
2023/05/25 00:37:09;;;;;;;;;20.60;18.40;;;;;18.80;63.45;99235.06;7747223;22;96383;-61
2023/05/25 00:40:15;;;;;;;;;23.00;21.00;;;;;18.79;63.77;99235.34;7775463;22;97496;-60
2023/05/25 00:43:18;;;;;;;;;20.00;18.40;;;;;18.79;63.33;99238.91;7747788;22;97451;-60
2023/05/25 00:46:23;;;;;;;;;16.00;14.40;;;;;18.80;63.26;99245.19;7747714;22;96165;-60
2023/05/25 00:49:30;;;;;;;;;23.00;21.00;;;;;18.81;63.23;99246.84;7747576;22;96373;-60
2023/05/25 00:52:34;;;;;;;;;20.25;20.00;;;;;18.77;63.22;99245.69;7746926;22;97007;-60
2023/05/25 00:55:44;;;;;;;;;20.60;18.00;;;;;18.77;62.51;99243.78;7746604;22;96333;-60
2023/05/25 00:58:51;;;;;;;;;15.00;13.00;;;;;18.69;63.40;99232.56;7746046;22;97071;-60
2023/05/25 01:01:56;;;;;;;;;18.40;17.00;;;;;18.76;63.49;99247.63;7746398;22;98275;-60
2023/05/25 01:05:06;;;;;;;;;16.80;15.80;;;;;18.72;63.20;99245.66;7747287;22;96751;-60
2023/05/25 01:08:14;;;;;;;;;19.60;15.20;;;;;18.74;63.51;99244.34;7775091;22;96298;-61
2023/05/25 01:11:21;;;;;;;;;23.20;19.80;;;;;18.78;63.92;99236.41;7774886;22;96610;-60
2023/05/25 01:14:26;;;;;;;;;21.60;17.80;;;;;18.76;63.65;99241.34;7747155;22;96457;-61
2023/05/25 01:17:31;;;;;;;;;23.60;19.60;;;;;18.72;63.48;99246.50;7747784;22;96645;-60
2023/05/25 01:20:36;;;;;;;;;17.50;16.50;;;;;18.72;63.61;99243.75;7745712;22;96781;-60
2023/05/25 01:23:46;;;;;;;;;17.75;15.00;;;;;18.71;63.69;99242.16;7774555;22;96223;-60
2023/05/25 01:26:56;;;;;;;;;17.40;17.00;;;;;18.73;63.69;99244.59;7747330;22;96255;-60
2023/05/25 01:30:00;;;;;;;;;19.00;18.60;;;;;18.71;63.94;99244.06;7774348;22;96232;-60
2023/05/25 01:33:07;;;;;;;;;17.60;15.40;;;;;18.66;63.66;99249.50;7774439;22;96804;-60
2023/05/25 01:36:11;;;;;;;;;18.60;17.20;;;;;18.68;64.01;99244.56;7776548;22;96213;-60
2023/05/25 01:39:16;;;;;;;;;20.00;18.00;;;;;18.69;64.11;99248.94;7776718;22;96398;-60
2023/05/25 01:42:19;;;;;;;;;15.50;14.75;;;;;18.68;63.99;99245.38;7749121;22;96725;-60
2023/05/25 01:45:23;;;;;;;;;17.60;14.60;;;;;18.62;64.72;99249.16;7749324;22;96169;-60
2023/05/25 01:48:35;;;;;;;;;17.00;16.00;;;;;18.59;64.55;99247.81;7749047;22;97497;-60
2023/05/25 01:51:43;;;;;;;;;19.00;18.00;;;;;18.54;65.09;99250.50;7777251;22;96456;-60
2023/05/25 01:54:55;;;;;;;;;17.60;16.60;;;;;18.55;65.17;99245.88;7776668;22;96274;-60
2023/05/25 01:57:59;;;;;;;;;21.00;19.00;;;;;18.56;64.34;99245.63;7722377;22;96344;-60
2023/05/25 02:01:03;;;;;;;;;22.00;19.00;;;;;18.49;64.42;99234.06;7748028;22;96373;-60
2023/05/25 02:04:06;;;;;;;;;18.00;16.60;;;;;18.52;64.38;99246.38;7775222;22;96850;-61
2023/05/25 02:07:11;;;;;;;;;20.00;18.60;;;;;18.50;64.61;99243.09;7775286;22;96230;-60
2023/05/25 02:10:16;;;;;;;;;18.25;17.00;;;;;18.51;64.79;99240.09;7748460;22;96548;-60
2023/05/25 02:13:19;;;;;;;;;22.40;21.00;;;;;18.53;65.00;99248.00;7775514;22;96293;-60
2023/05/25 02:16:22;;;;;;;;;23.00;21.00;;;;;18.56;65.15;99242.06;7799491;22;96628;-58
2023/05/25 02:19:26;;;;;;;;;23.75;22.50;;;;;18.54;64.60;99241.50;7776133;22;96904;-60
2023/05/25 02:22:31;;;;;;;;;20.40;19.00;;;;;18.51;64.36;99240.09;7782522;22;96306;-60
2023/05/25 02:25:36;;;;;;;;;22.40;18.60;;;;;18.51;64.79;99240.09;7783091;22;96878;-59
2023/05/25 02:28:40;;;;;;;;;21.60;19.00;;;;;18.48;64.48;99232.41;7782761;22;96785;-60
2023/05/25 02:31:43;;;;;;;;;29.00;23.00;;;;;18.47;64.17;99233.50;7781844;22;96588;-59
2023/05/25 02:34:46;;;;;;;;;20.40;18.80;;;;;18.45;64.88;99229.41;7780314;22;96738;-60
2023/05/25 02:37:50;;;;;;;;;25.80;21.00;;;;;18.41;64.96;99231.03;7779901;22;96462;-59
2023/05/25 02:40:55;;;;;;;;;24.00;21.00;;;;;18.35;64.86;99221.97;7757217;22;96636;-59
2023/05/25 02:43:59;;;;;;;;;25.00;21.40;;;;;18.37;65.15;99228.00;7756248;22;96636;-59
2023/05/25 02:47:02;;;;;;;;;24.60;23.00;;;;;18.39;65.10;99225.81;7783264;22;96088;-59
2023/05/25 02:50:07;;;;;;;;;20.60;19.40;;;;;18.27;65.30;99227.13;7756060;22;97084;-60
2023/05/25 02:53:16;;;;;;;;;24.60;20.60;;;;;18.32;65.62;99221.69;7755781;22;96589;-59
2023/05/25 02:56:21;;;;;;;;;25.00;21.40;;;;;18.27;65.93;99217.03;7780773;22;96174;-59
2023/05/25 02:59:25;;;;;;;;;25.00;21.00;;;;;18.23;65.94;99226.00;7780316;22;96315;-59
2023/05/25 03:02:29;;;;;;;;;28.00;25.00;;;;;18.23;66.10;99223.28;7780945;22;97066;-59
2023/05/25 03:05:34;;;;;;;;;29.75;26.75;;;;;18.19;66.11;99221.06;7781539;22;96199;-59
2023/05/25 03:08:38;;;;;;;;;29.25;25.25;;;;;18.22;66.18;99221.63;7779446;22;97647;-59
2023/05/25 03:11:42;;;;;;;;;25.80;23.40;;;;;18.23;66.15;99224.06;7807210;22;96428;-60
2023/05/25 03:14:50;;;;;;;;;27.00;24.00;;;;;18.30;66.08;99219.22;7782404;22;96564;-59
2023/05/25 03:17:59;;;;;;;;;27.25;24.25;;;;;18.28;66.25;99221.38;7782416;22;96137;-59
2023/05/25 03:21:06;;;;;;;;;25.60;23.60;;;;;18.29;66.16;99222.19;7782452;22;96249;-59
2023/05/25 03:24:10;;;;;;;;;29.40;25.00;;;;;18.18;66.67;99205.75;7810340;22;96238;-59
2023/05/25 03:27:15;;;;;;;;;29.80;24.40;;;;;18.33;66.49;99228.78;7781890;22;96865;-59
2023/05/25 03:30:18;;;;;;;;;30.60;24.40;;;;;18.30;66.88;99241.06;7782269;22;96665;-59
2023/05/25 03:33:22;;;;;;;;;27.00;22.80;;;;;18.32;66.70;99249.00;7782675;22;96498;-59
2023/05/25 03:36:26;;;;;;;;;24.60;22.20;;;;;18.31;66.26;99250.88;7781777;22;96825;-59
2023/05/25 03:39:30;;;;;;;;;25.75;22.25;;;;;18.30;66.56;99251.16;7754798;22;98615;-60
2023/05/25 03:42:35;;;;;;;;;30.25;24.75;;;;;18.27;66.41;99248.94;7778737;22;96668;-59
2023/05/25 03:45:38;;;;;;;;;31.00;25.50;;;;;18.21;66.58;99244.53;7752895;22;98334;-59
2023/05/25 03:48:42;;;;;;;;;34.00;28.75;;;;;18.22;66.43;99255.19;7779704;22;96289;-59
2023/05/25 03:51:45;;;;;;;;;30.25;26.75;;;;;18.25;66.48;99249.22;7779126;22;96167;-59
2023/05/25 03:54:49;;;;;;;;;33.80;29.40;;;;;18.24;66.57;99252.19;7780600;22;96808;-59
2023/05/25 03:57:53;;;;;;;;;33.00;30.00;;;;;18.28;66.20;99256.03;7777963;22;96240;-59
2023/05/25 04:00:57;;;;;;;;;32.20;28.40;;;;;18.35;66.10;99262.91;7781119;22;96264;-58
2023/05/25 04:04:00;;;;;;;;;34.00;30.00;;;;;18.37;65.96;99266.22;7808617;22;96041;-59
2023/05/25 04:07:03;;;;;;;;;37.40;30.00;;;;;18.35;65.80;99268.38;7781757;22;96223;-59
2023/05/25 04:10:08;;;;;;;;;31.00;26.00;;;;;18.41;65.49;99267.34;7808020;22;96177;-59
2023/05/25 04:13:13;;;;;;;;;35.25;29.75;;;;;18.41;65.23;99271.97;7780398;22;96273;-60
2023/05/25 04:16:16;;;;;;;;;32.75;27.75;;;;;18.40;65.06;99268.41;7778675;22;96276;-58
2023/05/25 04:19:20;;;;;;;;;34.00;29.40;;;;;18.31;65.39;99267.25;7779800;22;96924;-60
2023/05/25 04:22:23;;;;;;;;;32.00;27.50;;;;;18.31;65.45;99270.00;7805169;22;96198;-59
2023/05/25 04:25:27;;;;;;;;;30.40;29.40;;;;;18.38;65.96;99277.94;7776306;22;96361;-60
2023/05/25 04:28:34;;;;;;;;;25.25;23.75;;;;;18.37;65.44;99270.84;7777554;22;96156;-59
2023/05/25 04:32:17;;;;;;;;;32.75;29.75;;;;;18.37;65.65;99277.16;7685913;22;97111;-60
2023/05/25 04:35:31;;;;;;;;;34.50;30.00;;;;;18.34;65.43;99285.84;7689294;22;96413;-59
2023/05/25 04:38:34;;;;;;;;;32.50;28.00;;;;;18.36;65.26;99291.03;7751532;22;96667;-59
2023/05/25 04:41:38;;;;;;;;;32.00;28.00;;;;;18.42;65.28;99288.06;7751627;22;97117;-59
2023/05/25 04:44:46;;;;;;;;;36.20;28.00;;;;;18.48;65.50;99291.66;7778222;22;96186;-59
2023/05/25 04:47:50;;;;;;;;;32.40;26.20;;;;;18.48;65.17;99295.22;7777451;22;96190;-59
2023/05/25 04:50:54;;;;;;;;;26.60;24.00;;;;;18.53;64.10;99297.16;7777763;22;96265;-59
2023/05/25 04:53:59;;;;;;;;;25.00;24.00;;;;;18.49;63.82;99287.84;7774579;22;96198;-60
2023/05/25 04:57:02;;;;;;;;;28.50;24.50;;;;;18.61;63.58;99299.44;7773726;22;98779;-59
2023/05/25 05:00:11;;;;;;;;;29.00;27.00;;;;;18.61;63.79;99299.44;7774853;22;96179;-60
2023/05/25 05:03:15;;;;;;;;;26.60;23.00;;;;;18.59;63.93;99296.97;7777342;22;96187;-59
2023/05/25 05:06:18;;;;;;;;;25.80;23.00;;;;;18.52;63.18;99304.50;7778567;22;96220;-59
2023/05/25 05:09:22;;;;;;;;;26.75;24.00;;;;;18.54;63.67;99307.84;7779940;22;96398;-59
2023/05/25 05:12:26;;;;;;;;;26.00;23.00;;;;;18.56;63.76;99313.06;7782321;22;96399;-59
2023/05/25 05:15:34;;;;;;;;;24.60;22.80;;;;;18.55;63.96;99311.41;7778720;22;96187;-60
2023/05/25 05:18:37;;;;;;;;;26.00;23.00;;;;;18.54;63.37;99326.13;7777272;22;96618;-59
2023/05/25 05:21:41;;;;;;;;;25.25;20.50;;;;;18.53;63.16;99333.50;7776915;22;96401;-60
2023/05/25 05:24:45;;;;;;;;;21.00;20.00;;;;;18.47;62.54;99334.50;7777732;22;96930;-59
2023/05/25 05:27:54;;;;;;;;;25.40;22.40;;;;;18.44;63.12;99335.06;7752412;22;96749;-60
2023/05/25 05:31:02;;;;;;;;;21.00;18.00;;;;;18.45;63.49;99333.97;7780436;22;96942;-59
2023/05/25 05:34:06;;;;;;;;;26.00;24.00;;;;;18.45;63.57;99336.69;7781208;22;96170;-59
2023/05/25 05:37:10;;;;;;;;;28.00;23.00;;;;;18.46;62.97;99332.91;7783001;22;96301;-59
2023/05/25 05:40:14;;;;;;;;;24.40;20.20;;;;;18.43;63.08;99341.59;7783232;22;96309;-59
2023/05/25 05:43:18;;;;;;;;;26.00;23.00;;;;;18.36;63.20;99340.19;7781878;22;96312;-59
2023/05/25 05:46:22;;;;;;;;;26.20;22.60;;;;;18.29;63.36;99345.03;7780697;22;96207;-58
2023/05/25 05:49:26;;;;;;;;;24.60;23.00;;;;;18.33;62.66;99346.97;7753339;22;98913;-59
2023/05/25 05:52:30;;;;;;;;;25.20;22.00;;;;;18.36;62.18;99337.44;7781224;22;97180;-60
2023/05/25 05:55:33;;;;;;;;;28.40;24.00;;;;;18.33;62.62;99333.31;7781557;22;96193;-59
2023/05/25 05:58:37;;;;;;;;;29.40;28.40;;;;;18.42;62.60;99347.34;7782963;22;96211;-60
2023/05/25 06:01:42;;;;;;;;;23.75;22.75;;;;;18.46;61.93;99352.00;7782167;22;96304;-59
2023/05/25 06:04:46;;;;;;;;;23.40;19.80;;;;;18.38;61.79;99359.84;7781264;22;96299;-60
2023/05/25 06:07:50;;;;;;;;;25.60;22.40;;;;;18.37;61.61;99348.13;7780596;22;96302;-59
2023/05/25 06:10:56;;;;;;;;;23.40;21.40;;;;;18.39;61.58;99345.09;7781160;22;97075;-59
2023/05/25 06:14:00;;;;;;;;;25.50;22.00;;;;;18.38;61.69;99357.94;7780866;22;96198;-60
2023/05/25 06:17:05;;;;;;;;;25.00;22.00;;;;;18.50;61.51;99365.94;7779002;22;96838;-60
2023/05/25 06:20:09;;;;;;;;;28.00;23.00;;;;;18.66;60.80;99369.66;7778410;22;96736;-59
2023/05/25 06:23:13;;;;;;;;;27.40;24.80;;;;;18.81;60.33;99359.66;7755305;22;97627;-59
2023/05/25 06:26:16;;;;;;;;;22.80;20.20;;;;;18.97;60.27;99364.09;7806966;22;96172;-59
2023/05/25 06:29:20;;;;;;;;;23.00;21.75;;;;;19.05;59.87;99373.72;7778951;22;96846;-59
2023/05/25 06:32:24;;;;;;;;;25.00;22.00;;;;;19.24;59.14;99365.91;7777915;22;96181;-60
2023/05/25 06:35:28;;;;;;;;;25.80;22.60;;;;;19.32;58.73;99368.94;7778472;22;96217;-59
2023/05/25 06:38:32;;;;;;;;;22.00;20.00;;;;;19.58;58.46;99380.81;7780500;22;96321;-59
2023/05/25 06:41:37;;;;;;;;;21.60;20.00;;;;;19.54;58.09;99382.47;7780887;22;96256;-60
2023/05/25 06:44:41;;;;;;;;;27.33;25.00;;;;;19.63;57.79;99382.75;7781488;22;96880;-59
2023/05/25 06:47:46;;;;;;;;;27.20;24.00;;;;;19.71;57.52;99388.53;7807986;22;96237;-59
2023/05/25 06:50:49;;;;;;;;;29.40;25.40;;;;;19.78;57.46;99389.09;7781674;22;96314;-59
2023/05/25 06:53:53;;;;;;;;;33.33;26.00;;;;;19.88;57.00;99382.84;7807286;22;96386;-60
2023/05/25 06:56:57;;;;;;;;;31.60;27.60;;;;;19.87;56.39;99383.91;7806391;22;96170;-59
2023/05/25 07:00:00;;;;;;;;;32.60;29.00;;;;;19.88;56.38;99378.19;7805502;22;96621;-59
2023/05/25 07:03:07;;;;;;;;;33.00;29.00;;;;;19.98;57.03;99385.59;7779789;22;96661;-59
2023/05/25 07:06:11;;;;;;;;;32.25;27.50;;;;;20.04;55.90;99384.50;7808255;22;96321;-59
2023/05/25 07:09:16;;;;;;;;;32.00;28.00;;;;;19.86;56.25;99393.22;7808616;22;96277;-59
2023/05/25 07:12:20;;;;;;;;;34.25;28.25;;;;;19.55;57.14;99399.69;7807693;22;96196;-59
2023/05/25 07:15:23;;;;;;;;;40.00;33.40;;;;;19.39;57.45;99402.34;7807915;22;96217;-58
2023/05/25 07:18:28;;;;;;;;;40.00;32.25;;;;;19.26;58.09;99404.69;7807989;22;96103;-58
2023/05/25 07:21:32;;;;;;;;;39.40;32.00;;;;;19.09;58.59;99409.53;7808034;22;96182;-60
2023/05/25 07:24:36;;;;;;;;;35.80;30.80;;;;;18.90;59.53;99406.44;7808153;22;96188;-59
2023/05/25 07:27:41;;;;;;;;;39.00;31.50;;;;;18.92;60.10;99402.31;7807722;22;96200;-60
2023/05/25 07:30:44;;;;;;;;;36.50;31.25;;;;;18.89;60.42;99411.06;7808171;22;96172;-59
2023/05/25 07:33:49;;;;;;;;;39.00;32.60;;;;;18.91;60.65;99402.63;7808509;22;96224;-59
2023/05/25 07:36:53;;;;;;;;;34.80;29.00;;;;;18.98;60.26;99405.91;7807495;22;96313;-60
2023/05/25 07:39:56;;;;;;;;;34.00;30.20;;;;;18.94;60.08;99402.91;7807482;22;96263;-59
2023/05/25 07:43:00;;;;;;;;;35.00;31.00;;;;;18.80;60.48;99404.44;7807519;22;96023;-59
2023/05/25 07:46:03;;;;;;;;;42.40;33.40;;;;;18.71;60.99;99403.28;7807414;22;96241;-59
2023/05/25 07:49:11;;;;;;;;;45.00;35.00;;;;;18.69;61.52;99410.09;7807480;22;96265;-59
2023/05/25 07:52:15;;;;;;;;;42.60;33.60;;;;;18.85;61.68;99407.22;7779946;22;96624;-59
2023/05/25 07:55:19;;;;;;;;;45.00;35.00;;;;;18.88;61.16;99401.22;7779420;22;96556;-59
2023/05/25 07:58:23;;;;;;;;;44.40;34.00;;;;;18.87;60.48;99405.03;7807723;22;96129;-59
2023/05/25 08:01:26;;;;;;;;;37.67;32.00;;;;;18.82;61.38;99415.09;7807859;22;96293;-59
2023/05/25 08:04:32;;;;;;;;;39.60;32.60;;;;;18.77;61.66;99406.84;7754819;22;98777;-58
2023/05/25 08:07:36;;;;;;;;;39.50;32.00;;;;;18.72;61.48;99409.56;7808026;22;96170;-59
2023/05/25 08:10:42;;;;;;;;;31.75;29.00;;;;;18.84;61.93;99404.72;7807948;22;96160;-60
2023/05/25 08:13:45;;;;;;;;;36.50;31.00;;;;;18.94;60.95;99408.38;7807905;22;96826;-60
2023/05/25 08:16:49;;;;;;;;;33.00;28.00;;;;;18.97;60.87;99409.72;7807282;22;96974;-60
2023/05/25 08:19:54;;;;;;;;;39.40;30.00;;;;;19.00;60.56;99409.22;7806392;22;96190;-59
2023/05/25 08:22:58;;;;;;;;;32.50;29.50;;;;;19.09;60.92;99412.28;7808153;22;96184;-59
2023/05/25 08:26:01;;;;;;;;;34.00;30.40;;;;;18.90;60.34;99409.16;7808198;22;96218;-60
2023/05/25 08:29:13;;;;;;;;;32.50;28.00;;;;;18.93;60.78;99414.09;7754826;22;98412;-58
2023/05/25 08:32:17;;;;;;;;;40.75;33.25;;;;;18.94;61.20;99415.72;7809599;22;96141;-59
2023/05/25 08:35:21;;;;;;;;;34.80;29.60;;;;;19.00;60.81;99420.97;7783302;22;96726;-59
2023/05/25 08:38:25;;;;;;;;;35.60;30.80;;;;;18.98;60.26;99417.69;7809863;22;96197;-59
2023/05/25 08:41:29;;;;;;;;;30.00;26.40;;;;;19.03;60.65;99416.88;7809969;22;96384;-59
2023/05/25 08:44:33;;;;;;;;;29.20;26.20;;;;;19.14;60.17;99415.88;7809708;22;96333;-59
2023/05/25 08:47:41;;;;;;;;;27.60;23.00;;;;;19.24;59.58;99404.16;7809298;22;96235;-60
2023/05/25 08:50:47;;;;;;;;;27.00;24.50;;;;;19.32;58.81;99417.31;7781525;22;96612;-59
2023/05/25 08:53:51;;;;;;;;;31.00;27.60;;;;;19.36;58.85;99408.31;7808916;22;96205;-59
2023/05/25 08:57:00;;;;;;;;;26.80;25.40;;;;;19.48;58.61;99399.94;7808570;22;96158;-59
2023/05/25 09:00:09;;;;;;;;;33.00;29.40;;;;;19.62;57.34;99401.06;7807208;22;96167;-59
2023/05/25 09:03:16;;;;;;;;;31.00;27.75;;;;;19.70;57.33;99405.19;7808961;22;96212;-59
2023/05/25 09:06:23;;;;;;;;;27.40;24.40;;;;;19.79;57.14;99409.88;7809456;22;96299;-59
2023/05/25 09:09:27;;;;;;;;;27.00;25.00;;;;;19.65;56.93;99411.47;7809403;22;96219;-59
2023/05/25 09:12:31;;;;;;;;;29.00;25.60;;;;;19.59;56.80;99407.09;7809806;22;96176;-59
2023/05/25 09:15:35;;;;;;;;;31.00;27.00;;;;;19.70;57.16;99411.50;7809816;22;96691;-59
2023/05/25 09:18:39;;;;;;;;;30.00;25.00;;;;;19.74;57.48;99412.59;7809426;22;96014;-60
2023/05/25 09:21:44;;;;;;;;;27.00;24.40;;;;;19.82;57.05;99417.56;7808795;22;96866;-59
2023/05/25 09:24:47;;;;;;;;;26.50;23.00;;;;;19.81;56.75;99420.56;7756515;22;96966;-60
2023/05/25 09:27:51;;;;;;;;;30.00;27.00;;;;;19.82;56.74;99423.03;7782869;22;96809;-59
2023/05/25 09:30:56;;;;;;;;;31.75;28.25;;;;;19.79;57.05;99430.97;7809266;22;96229;-59
2023/05/25 09:33:59;;;;;;;;;30.25;28.25;;;;;19.82;57.06;99425.78;7809213;22;96209;-60
2023/05/25 09:37:11;;;;;;;;;30.00;28.00;;;;;19.81;56.28;99431.50;7809005;22;95997;-59
2023/05/25 09:40:15;;;;;;;;;34.00;30.00;;;;;19.88;57.11;99424.72;7783321;22;96304;-60
2023/05/25 09:43:19;;;;;;;;;32.00;29.50;;;;;20.01;56.42;99428.84;7781848;22;96623;-59
2023/05/25 09:46:43;;;;;;;;;31.00;28.00;;;;;19.97;56.44;99435.94;7756197;22;96711;-60
2023/05/25 09:49:49;;;;;;;;;29.80;28.00;;;;;19.78;56.55;99421.94;7806842;22;96204;-59
2023/05/25 09:52:57;;;;;;;;;34.80;31.80;;;;;19.77;57.09;99431.22;7806650;22;96724;-59
2023/05/25 09:56:01;;;;;;;;;28.25;26.50;;;;;19.73;57.01;99423.81;7806985;22;96322;-60
2023/05/25 09:59:06;;;;;;;;;32.40;28.40;;;;;19.81;57.15;99424.13;7808572;22;96202;-60
2023/05/25 10:02:09;;;;;;;;;34.50;30.00;;;;;19.81;56.78;99421.38;7805984;22;96221;-60
2023/05/25 10:05:13;;;;;;;;;36.60;30.00;;;;;19.91;56.60;99423.34;7805538;22;96190;-59
2023/05/25 10:08:20;;;;;;;;;33.00;30.00;;;;;19.93;56.56;99420.34;7807786;22;96353;-59
2023/05/25 10:11:25;;;;;;;;;30.40;29.00;;;;;20.00;56.59;99415.41;7808487;22;96207;-59
2023/05/25 10:14:30;;;;;;;;;31.50;27.50;;;;;20.01;55.93;99412.41;7807621;22;96159;-59
2023/05/25 10:17:35;;;;;;;;;34.20;29.00;;;;;20.03;56.38;99412.16;7807948;22;96285;-59
2023/05/25 10:20:39;;;;;;;;;30.20;28.00;;;;;19.88;56.04;99415.66;7807588;22;96174;-60
2023/05/25 10:23:47;;;;;;;;;32.00;29.00;;;;;20.02;56.77;99421.44;7807425;22;96238;-59
2023/05/25 10:26:55;;;;;;;;;31.00;29.60;;;;;20.14;56.55;99419.28;7780311;22;96725;-60
2023/05/25 10:30:01;;;;;;;;;36.25;30.00;;;;;20.17;55.61;99410.53;7808315;22;96166;-59
2023/05/25 10:33:05;;;;;;;;;38.00;31.00;;;;;20.22;55.95;99402.31;7808884;22;96257;-59
2023/05/25 10:36:12;;;;;;;;;33.60;29.40;;;;;20.24;56.17;99409.16;7808873;22;96291;-59
2023/05/25 10:39:20;;;;;;;;;35.20;31.00;;;;;20.26;56.06;99403.41;7780578;22;96648;-59
2023/05/25 10:42:23;;;;;;;;;35.40;30.40;;;;;20.36;55.58;99417.16;7808695;22;96241;-59
2023/05/25 10:45:27;;;;;;;;;32.60;29.60;;;;;20.35;55.44;99418.25;7808349;22;96883;-59
2023/05/25 10:48:37;;;;;;;;;38.40;31.40;;;;;20.31;55.07;99407.03;7809009;22;96324;-58
2023/05/25 10:51:42;;;;;;;;;36.75;31.25;;;;;20.36;55.39;99406.19;7809370;22;96127;-59
2023/05/25 10:54:48;;;;;;;;;34.20;29.60;;;;;20.33;55.99;99408.69;7781260;22;96870;-59
2023/05/25 10:58:07;;;;;;;;;31.60;27.00;;;;;20.43;55.63;99403.19;7808442;22;96363;-59
2023/05/25 11:01:13;;;;;;;;;32.80;28.80;;;;;20.33;55.06;99407.56;7781926;22;96484;-58
2023/05/25 11:04:17;;;;;;;;;31.00;29.50;;;;;20.24;56.18;99411.91;7808462;22;96774;-59
2023/05/25 11:07:21;;;;;;;;;31.50;28.00;;;;;20.24;56.55;99413.81;7807058;22;96222;-59
2023/05/25 11:10:54;;;;;;;;;33.40;30.00;;;;;20.33;56.38;99413.03;7807298;22;96164;-59
2023/05/25 11:14:02;;;;;;;;;28.00;26.00;;;;;20.36;56.65;99398.00;7807895;22;96244;-59
2023/05/25 11:17:10;;;;;;;;;33.00;29.00;;;;;20.51;56.31;99414.44;7753440;22;98937;-60
2023/05/25 11:20:26;;;;;;;;;35.00;30.00;;;;;20.56;55.22;99411.69;7807351;22;96256;-59
2023/05/25 11:23:30;;;;;;;;;37.00;31.40;;;;;20.57;55.30;99410.59;7808215;22;96182;-58
2023/05/25 11:26:35;;;;;;;;;34.40;30.80;;;;;20.68;55.11;99403.19;7779537;22;96885;-60
2023/05/25 11:29:40;;;;;;;;;37.40;31.40;;;;;20.78;54.78;99408.66;7808137;22;96114;-59
2023/05/25 11:32:49;;;;;;;;;31.80;28.00;;;;;20.87;54.71;99412.47;7807719;22;96194;-59
2023/05/25 11:35:56;;;;;;;;;36.00;31.50;;;;;20.86;54.08;99399.06;7808664;22;96170;-59
2023/05/25 11:39:01;;;;;;;;;31.80;25.80;;;;;20.86;54.12;99410.03;7808420;22;96210;-59
2023/05/25 11:42:21;;;;;;;;;33.00;29.60;;;;;21.01;53.83;99401.78;7808089;22;96238;-59
2023/05/25 11:45:25;;;;;;;;;36.60;32.00;;;;;21.12;53.58;99395.97;7807744;22;96210;-59
2023/05/25 11:48:28;;;;;;;;;39.00;30.60;;;;;21.21;53.56;99388.03;7808097;22;96289;-59
2023/05/25 11:51:31;;;;;;;;;37.00;31.00;;;;;21.27;53.10;99397.06;7780793;22;96807;-59
2023/05/25 11:54:35;;;;;;;;;35.50;30.50;;;;;21.27;52.65;99397.88;7808732;22;96187;-59
2023/05/25 11:57:40;;;;;;;;;34.00;29.00;;;;;21.17;52.62;99392.44;7779838;22;96237;-59
2023/05/25 12:00:44;;;;;;;;;33.00;29.25;;;;;21.16;53.26;99390.78;7806533;22;96384;-60
2023/05/25 12:03:49;;;;;;;;;33.20;29.40;;;;;21.25;53.38;99396.53;7806861;22;96154;-58
2023/05/25 12:06:53;;;;;;;;;34.00;32.00;;;;;21.20;53.47;99394.63;7808142;22;96176;-59
2023/05/25 12:10:06;;;;;;;;;29.60;27.60;;;;;21.13;53.69;99386.69;7807521;22;96236;-59
2023/05/25 12:13:13;;;;;;;;;27.00;25.00;;;;;21.30;54.01;99391.88;7807670;22;96184;-59
2023/05/25 12:16:16;;;;;;;;;35.00;30.00;;;;;21.28;52.92;99391.31;7807984;22;96325;-59
2023/05/25 12:19:21;;;;;;;;;35.00;30.00;;;;;21.22;52.89;99391.59;7806559;22;96704;-59
2023/05/25 12:22:24;;;;;;;;;36.75;32.75;;;;;21.24;53.50;99390.22;7808143;22;96652;-59
2023/05/25 12:25:28;;;;;;;;;35.00;30.00;;;;;21.22;53.56;99392.41;7806905;22;96178;-59
2023/05/25 12:29:00;;;;;;;;;31.60;28.00;;;;;21.34;53.10;99392.13;7807685;22;96169;-58
2023/05/25 12:32:05;;;;;;;;;34.60;30.00;;;;;21.29;52.71;99403.94;7780424;22;96281;-58
2023/05/25 12:35:09;;;;;;;;;37.75;33.00;;;;;21.29;53.50;99403.94;7807809;22;96245;-59
2023/05/25 12:38:14;;;;;;;;;36.40;30.00;;;;;21.42;53.79;99397.84;7807403;22;96844;-59
2023/05/25 12:41:17;;;;;;;;;33.00;30.00;;;;;21.44;52.87;99397.56;7806944;22;96878;-59
2023/05/25 12:44:24;;;;;;;;;37.00;32.50;;;;;21.38;52.33;99385.78;7807547;22;96180;-59
2023/05/25 12:47:29;;;;;;;;;33.00;30.00;;;;;21.50;52.76;99388.22;7780099;22;96858;-59
2023/05/25 12:50:34;;;;;;;;;34.00;30.00;;;;;21.51;52.84;99389.84;7805849;22;96024;-59
2023/05/25 12:53:47;;;;;;;;;31.20;29.20;;;;;21.56;52.72;99395.31;7807112;22;96203;-59
2023/05/25 12:56:54;;;;;;;;;40.00;33.00;;;;;21.48;52.52;99372.03;7781014;22;96179;-59
2023/05/25 12:59:59;;;;;;;;;38.00;33.00;;;;;21.55;52.85;99374.50;7807820;22;96146;-59
2023/05/25 13:03:02;;;;;;;;;39.67;32.00;;;;;21.58;52.97;99376.66;7808303;22;96197;-59
2023/05/25 13:06:06;;;;;;;;;36.00;31.75;;;;;21.49;53.40;99381.91;7808563;22;96433;-60
2023/05/25 13:09:10;;;;;;;;;33.25;32.00;;;;;21.53;53.00;99374.75;7807498;22;96194;-59
2023/05/25 13:12:13;;;;;;;;;38.20;32.00;;;;;21.48;52.53;99377.53;7779277;22;96508;-59
2023/05/25 13:15:19;;;;;;;;;38.40;32.40;;;;;21.43;52.73;99360.25;7805144;22;96302;-59
2023/05/25 13:18:23;;;;;;;;;38.60;32.00;;;;;21.64;52.70;99367.31;7805443;22;96241;-59
2023/05/25 13:21:27;;;;;;;;;38.00;33.00;;;;;21.64;52.21;99367.31;7777749;22;98336;-59
2023/05/25 13:24:30;;;;;;;;;37.00;31.00;;;;;21.59;52.56;99361.84;7779067;22;96635;-59
2023/05/25 13:27:35;;;;;;;;;34.60;31.60;;;;;21.64;52.04;99361.00;7807111;22;96242;-58
2023/05/25 13:30:39;;;;;;;;;36.80;32.40;;;;;21.72;51.85;99357.66;7778563;22;96584;-61
2023/05/25 13:33:43;;;;;;;;;35.80;31.80;;;;;21.71;52.14;99348.59;7807347;22;96270;-60
2023/05/25 13:36:47;;;;;;;;;35.00;30.00;;;;;21.79;52.42;99353.50;7806578;22;96268;-60
2023/05/25 13:39:50;;;;;;;;;40.00;33.00;;;;;21.83;52.58;99354.56;7807974;22;96699;-61
2023/05/25 13:42:54;;;;;;;;;38.00;33.00;;;;;21.86;51.99;99353.16;7807652;22;96248;-60
2023/05/25 13:45:58;;;;;;;;;38.80;33.00;;;;;21.93;51.90;99340.81;7808728;22;96653;-59
2023/05/25 13:49:02;;;;;;;;;35.60;32.00;;;;;22.04;51.59;99350.59;7782788;22;96194;-60
2023/05/25 13:52:06;;;;;;;;;37.33;30.00;;;;;21.89;51.80;99327.91;7809417;22;96223;-60
2023/05/25 13:55:09;;;;;;;;;37.80;32.20;;;;;21.92;51.61;99347.38;7782264;22;96648;-60
2023/05/25 13:58:12;;;;;;;;;36.00;31.50;;;;;21.78;51.40;99345.53;7806782;22;96186;-60
2023/05/25 14:01:17;;;;;;;;;31.00;24.00;;;;;21.65;52.40;99344.22;7806859;22;96171;-60
2023/05/25 14:04:20;;;;;;;;;39.00;34.00;;;;;21.59;52.41;99353.63;7808089;22;98326;-60
2023/05/25 14:07:24;;;;;;;;;37.00;31.20;;;;;21.59;52.74;99350.88;7781153;22;98371;-60
2023/05/25 14:10:27;;;;;;;;;36.00;31.75;;;;;21.65;52.50;99351.66;7808963;22;96203;-60